createdAt,value
2024-03-13T00:01:57.824Z,100393.13
2024-03-13T00:04:26.171Z,100395.50
2024-03-13T00:06:56.659Z,100389.25
2024-03-13T00:09:25.927Z,100393.59
2024-03-13T00:11:54.021Z,100398.41
2024-03-13T00:14:22.247Z,100400.41
2024-03-13T00:16:49.851Z,100393.28
2024-03-13T00:19:17.397Z,100386.91
2024-03-13T00:21:44.893Z,100388.16
2024-03-13T00:24:13.782Z,100384.47
2024-03-13T00:26:51.046Z,100383.78
2024-03-13T00:29:18.556Z,100370.97
2024-03-13T00:31:46.313Z,100374.03
2024-03-13T00:34:13.999Z,100373.69
2024-03-13T00:36:41.615Z,100380.94
2024-03-13T00:39:09.220Z,100372.13
2024-03-13T00:41:40.034Z,100373.41
2024-03-13T00:44:08.212Z,100379.25
2024-03-13T00:46:35.928Z,100378.47
2024-03-13T00:49:03.534Z,100383.88
2024-03-13T00:51:32.137Z,100370.50
2024-03-13T00:54:05.356Z,100376.63
2024-03-13T00:56:33.614Z,100374.53
2024-03-13T00:59:02.363Z,100371.69
2024-03-13T01:01:29.987Z,100364.91
2024-03-13T01:03:59.212Z,100360.94
2024-03-13T01:06:29.901Z,100365.91
2024-03-13T01:08:58.466Z,100365.22
2024-03-13T01:11:26.951Z,100363.63
2024-03-13T01:13:54.475Z,100366.94
2024-03-13T01:16:23.961Z,100367.72
2024-03-13T01:18:51.551Z,100363.84
2024-03-13T01:21:22.289Z,100363.41
2024-03-13T01:23:49.875Z,100364.59
2024-03-13T01:26:17.517Z,100359.13
2024-03-13T01:28:45.103Z,100354.72
2024-03-13T01:31:12.721Z,100347.09
2024-03-13T01:33:41.597Z,100351.81
2024-03-13T01:36:09.571Z,100345.06
2024-03-13T01:38:36.376Z,100340.31
2024-03-13T01:41:21.732Z,100343.91
2024-03-13T01:44:13.765Z,100343.75
2024-03-13T01:46:59.176Z,100339.94
2024-03-13T01:49:46.073Z,100336.97
2024-03-13T01:52:35.486Z,100329.69
2024-03-13T01:55:11.571Z,100332.66
2024-03-13T01:58:09.190Z,100345.50
2024-03-13T02:00:55.400Z,100342.38
2024-03-13T02:03:28.004Z,100332.47
2024-03-13T02:06:17.364Z,100337.63
2024-03-13T02:08:46.748Z,100341.53
2024-03-13T02:11:14.356Z,100341.38
2024-03-13T02:13:41.967Z,100335.97
2024-03-13T02:16:10.806Z,100329.41
2024-03-13T02:18:38.357Z,100328.56
2024-03-13T02:21:08.965Z,100324.59
2024-03-13T02:23:36.647Z,100320.88
2024-03-13T02:26:05.042Z,100316.59
2024-03-13T02:28:33.665Z,100312.59
2024-03-13T02:31:01.911Z,100310.13
2024-03-13T02:33:29.605Z,100312.31
2024-03-13T02:35:57.255Z,100323.78
2024-03-13T02:38:24.884Z,100327.41
2024-03-13T02:40:55.251Z,100316.72
2024-03-13T02:43:23.120Z,100318.53
2024-03-13T02:45:50.973Z,100319.56
2024-03-13T02:48:18.616Z,100309.88
2024-03-13T02:50:46.304Z,100315.09
2024-03-13T02:53:14.004Z,100321.53
2024-03-13T02:55:44.633Z,100311.16
2024-03-13T02:58:13.180Z,100313.31
2024-03-13T03:00:41.005Z,100320.56
2024-03-13T03:03:12.440Z,100311.00
2024-03-13T03:05:40.257Z,100326.34
2024-03-13T03:08:08.239Z,100323.00
2024-03-13T03:10:36.401Z,100321.72
2024-03-13T03:13:05.276Z,100325.69
2024-03-13T03:15:35.841Z,100319.84
2024-03-13T03:18:04.790Z,100321.31
2024-03-13T03:20:32.986Z,100319.00
2024-03-13T03:23:00.764Z,100316.38
2024-03-13T03:25:30.331Z,100323.25
2024-03-13T03:27:59.066Z,100328.44
2024-03-13T03:30:31.204Z,100336.50
2024-03-13T03:32:59.487Z,100334.22
2024-03-13T03:35:28.755Z,100342.72
2024-03-13T03:37:56.557Z,100342.09
2024-03-13T03:40:24.765Z,100338.31
2024-03-13T03:42:52.796Z,100348.09
2024-03-13T03:45:20.521Z,100336.28
2024-03-13T03:47:54.490Z,100336.28
2024-03-13T03:50:25.531Z,100333.56
2024-03-13T03:52:53.592Z,100337.91
2024-03-13T03:55:22.793Z,100331.47
2024-03-13T03:57:50.811Z,100328.34
2024-03-13T04:00:18.895Z,100331.06
2024-03-13T04:02:46.572Z,100331.50
2024-03-13T04:05:14.989Z,100328.81
2024-03-13T04:07:43.398Z,100330.88
2024-03-13T04:10:11.262Z,100329.56
2024-03-13T04:12:39.871Z,100332.94
2024-03-13T04:15:08.110Z,100332.97
2024-03-13T04:17:36.517Z,100334.84
2024-03-13T04:20:04.727Z,100330.03
2024-03-13T04:22:33.211Z,100331.50
2024-03-13T04:25:01.112Z,100337.28
2024-03-13T04:27:28.891Z,100342.81
2024-03-13T04:29:56.558Z,100349.47
2024-03-13T04:32:26.294Z,100353.25
2024-03-13T04:34:54.174Z,100357.34
2024-03-13T04:37:24.429Z,100362.97
2024-03-13T04:39:52.333Z,100353.28
2024-03-13T04:42:20.703Z,100353.91
2024-03-13T04:44:49.592Z,100347.88
2024-03-13T04:47:17.277Z,100358.03
2024-03-13T04:49:44.960Z,100347.84
2024-03-13T04:52:12.629Z,100350.16
2024-03-13T04:54:40.852Z,100341.22
2024-03-13T04:57:08.523Z,100349.31
2024-03-13T04:59:37.288Z,100348.06
2024-03-13T05:02:05.181Z,100367.34
2024-03-13T05:04:33.133Z,100372.09
2024-03-13T05:07:03.409Z,100372.09
2024-03-13T05:09:31.390Z,100373.53
2024-03-13T05:11:59.225Z,100380.19
2024-03-13T05:14:27.070Z,100372.59
2024-03-13T05:16:55.264Z,100374.78
2024-03-13T05:19:24.035Z,100377.84
2024-03-13T05:21:52.597Z,100386.31
2024-03-13T05:24:20.297Z,100380.69
2024-03-13T05:26:47.991Z,100388.81
2024-03-13T05:29:15.850Z,100395.66
2024-03-13T05:31:43.588Z,100396.19
2024-03-13T05:34:11.716Z,100397.97
2024-03-13T05:36:39.486Z,100399.16
2024-03-13T05:39:07.291Z,100391.25
2024-03-13T05:41:36.050Z,100398.28
2024-03-13T05:44:03.814Z,100403.22
2024-03-13T05:46:31.477Z,100399.59
2024-03-13T05:48:59.495Z,100392.78
2024-03-13T05:51:27.532Z,100394.56
2024-03-13T05:53:55.312Z,100404.31
2024-03-13T05:56:22.944Z,100408.41
2024-03-13T05:58:50.689Z,100400.63
2024-03-13T06:01:23.580Z,100404.53
2024-03-13T06:03:54.636Z,100397.63
2024-03-13T06:06:23.434Z,100408.66
2024-03-13T06:08:51.125Z,100402.84
2024-03-13T06:11:20.076Z,100404.94
2024-03-13T06:13:48.067Z,100406.38
2024-03-13T06:16:16.378Z,100409.06
2024-03-13T06:18:44.088Z,100413.25
2024-03-13T06:21:11.878Z,100406.94
2024-03-13T06:23:48.796Z,100413.25
2024-03-13T06:26:18.209Z,100417.13
2024-03-13T06:29:03.389Z,100407.28
2024-03-13T06:31:31.071Z,100407.91
2024-03-13T06:34:00.447Z,100420.78
2024-03-13T06:36:28.270Z,100414.84
2024-03-13T06:38:55.915Z,100415.38
2024-03-13T06:41:24.838Z,100427.53
2024-03-13T06:43:52.798Z,100422.34
2024-03-13T06:46:20.527Z,100427.28
2024-03-13T06:48:48.268Z,100434.88
2024-03-13T06:51:15.943Z,100425.72
2024-03-13T06:53:44.474Z,100432.63
2024-03-13T06:56:12.231Z,100420.56
2024-03-13T06:58:39.924Z,100424.84
2024-03-13T07:01:14.083Z,100429.19
2024-03-13T07:03:42.625Z,100429.72
2024-03-13T07:06:12.874Z,100432.03
2024-03-13T07:08:40.848Z,100426.75
2024-03-13T07:11:08.660Z,100431.63
2024-03-13T07:13:36.530Z,100431.56
2024-03-13T07:16:04.356Z,100431.03
2024-03-13T07:18:32.122Z,100445.91
2024-03-13T07:20:59.817Z,100444.84
2024-03-13T07:23:28.140Z,100450.13
2024-03-13T07:25:56.503Z,100447.41
2024-03-13T07:28:24.289Z,100453.66
2024-03-13T07:30:52.038Z,100450.47
2024-03-13T07:33:19.801Z,100454.47
2024-03-13T07:35:48.000Z,100449.00
2024-03-13T07:38:15.538Z,100449.72
2024-03-13T07:40:43.489Z,100452.31
2024-03-13T07:43:11.417Z,100455.59
2024-03-13T07:45:40.918Z,100450.84
2024-03-13T07:48:09.586Z,100458.66
2024-03-13T07:50:37.887Z,100450.50
2024-03-13T07:53:05.908Z,100464.16
2024-03-13T07:55:33.994Z,100460.41
2024-03-13T07:58:03.839Z,100461.28
2024-03-13T08:00:36.382Z,100464.06
2024-03-13T08:03:04.257Z,100457.44
2024-03-13T08:05:33.013Z,100464.75
2024-03-13T09:06:07.858Z,100519.06
2024-03-13T09:08:44.383Z,100529.75
2024-03-13T09:11:18.104Z,100527.47
2024-03-13T09:13:46.555Z,100529.69
2024-03-13T09:16:14.539Z,100539.78
2024-03-13T09:18:42.548Z,100532.06
2024-03-13T09:21:10.560Z,100537.09
2024-03-13T09:23:38.372Z,100539.59
2024-03-13T09:26:06.084Z,100534.53
2024-03-13T09:28:33.814Z,100537.81
2024-03-13T09:31:03.696Z,100540.78
2024-03-13T09:33:32.641Z,100540.88
2024-03-13T09:36:01.799Z,100538.75
2024-03-13T09:38:29.902Z,100543.22
2024-03-13T09:40:57.693Z,100547.78
2024-03-13T09:43:25.542Z,100542.63
2024-03-13T09:45:53.340Z,100548.78
2024-03-13T09:48:21.167Z,100547.91
2024-03-13T09:50:54.201Z,100549.69
2024-03-13T09:53:23.008Z,100548.22
2024-03-13T09:55:50.936Z,100541.06
2024-03-13T09:58:18.696Z,100545.38
2024-03-13T10:00:46.751Z,100549.69
2024-03-13T10:03:20.760Z,100548.81
2024-03-13T10:05:48.500Z,100552.78
2024-03-13T10:08:16.190Z,100560.66
2024-03-13T10:10:46.195Z,100556.66
2024-03-13T10:13:15.472Z,100562.59
2024-03-13T10:15:42.941Z,100562.34
2024-03-13T10:18:11.729Z,100569.09
2024-03-13T10:20:39.670Z,100571.09
2024-03-13T10:23:07.371Z,100563.72
2024-03-13T10:25:36.498Z,100573.03
2024-03-13T10:28:05.397Z,100564.59
2024-03-13T10:30:33.109Z,100570.63
2024-03-13T10:33:01.275Z,100567.63
2024-03-13T10:35:29.061Z,100572.25
2024-03-13T10:37:57.707Z,100559.66
2024-03-13T10:40:26.173Z,100557.09
2024-03-13T10:42:53.934Z,100554.25
2024-03-13T10:45:21.698Z,100559.41
2024-03-13T10:47:51.095Z,100546.38
2024-03-13T10:50:18.916Z,100560.16
2024-03-13T10:52:46.648Z,100553.84
2024-03-13T10:55:14.745Z,100569.09
2024-03-13T10:57:43.916Z,100570.19
2024-03-13T11:00:12.921Z,100567.41
2024-03-13T11:02:40.743Z,100562.16
2024-03-13T11:05:11.427Z,100578.38
2024-03-13T11:07:39.457Z,100564.16
2024-03-13T11:10:07.130Z,100569.06
2024-03-13T11:12:34.823Z,100574.81
2024-03-13T11:15:02.562Z,100569.94
2024-03-13T11:17:30.315Z,100570.94
2024-03-13T11:19:58.057Z,100570.31
2024-03-13T11:22:25.938Z,100561.00
2024-03-13T11:24:53.818Z,100571.31
2024-03-13T11:27:21.542Z,100563.38
2024-03-13T11:29:50.534Z,100571.81
2024-03-13T11:32:18.649Z,100574.75
2024-03-13T11:34:46.426Z,100572.72
2024-03-13T11:37:14.164Z,100563.53
2024-03-13T11:39:42.189Z,100562.00
2024-03-13T11:42:13.137Z,100561.44
2024-03-13T11:44:43.776Z,100562.75
2024-03-13T11:47:12.685Z,100566.13
2024-03-13T11:49:41.381Z,100564.91
2024-03-13T11:52:12.600Z,100565.66
2024-03-13T11:54:41.329Z,100570.28
2024-03-13T11:57:09.310Z,100571.78
2024-03-13T11:59:40.381Z,100568.25
2024-03-13T12:02:08.112Z,100561.34
2024-03-13T12:04:38.815Z,100567.41
2024-03-13T12:07:07.400Z,100570.56
2024-03-13T12:09:35.042Z,100559.09
2024-03-13T12:12:05.491Z,100555.59
2024-03-13T12:14:33.303Z,100558.75
2024-03-13T12:17:01.194Z,100544.09
2024-03-13T12:19:29.327Z,100544.19
2024-03-13T12:21:58.221Z,100537.63
2024-03-13T12:24:27.195Z,100535.38
2024-03-13T12:26:54.994Z,100530.97
2024-03-13T12:29:24.037Z,100524.25
2024-03-13T12:31:53.079Z,100527.84
2024-03-13T12:34:20.976Z,100531.59
2024-03-13T12:36:48.664Z,100529.28
2024-03-13T12:39:18.832Z,100530.66
2024-03-13T12:41:46.895Z,100523.34
2024-03-13T12:44:22.443Z,100530.59
2024-03-13T12:46:50.218Z,100521.53
2024-03-13T12:49:17.991Z,100518.88
2024-03-13T12:51:45.930Z,100512.63
2024-03-13T12:54:15.464Z,100516.88
2024-03-13T12:56:44.378Z,100510.47
2024-03-13T12:59:12.835Z,100506.13
2024-03-13T13:01:40.609Z,100505.88
2024-03-13T13:04:09.329Z,100510.13
2024-03-13T13:06:37.022Z,100510.91
2024-03-13T13:09:09.596Z,100508.84
2024-03-13T13:11:42.001Z,100502.09
2024-03-13T13:14:12.387Z,100509.78
2024-03-13T13:16:40.907Z,100512.25
2024-03-13T13:19:08.833Z,100502.34
2024-03-13T13:21:36.836Z,100511.81
2024-03-13T13:24:05.323Z,100514.28
2024-03-13T13:26:33.013Z,100514.00
2024-03-13T13:31:31.276Z,100501.63
2024-03-13T13:33:59.031Z,100495.50
2024-03-13T13:36:26.894Z,100500.69
2024-03-13T13:38:54.719Z,100491.69
2024-03-13T13:41:22.517Z,100499.66
2024-03-13T13:43:50.241Z,100501.06
2024-03-13T13:46:18.051Z,100505.31
2024-03-13T13:48:45.831Z,100496.69
2024-03-13T13:51:13.774Z,100498.94
2024-03-13T13:53:41.536Z,100498.59
2024-03-13T13:56:09.647Z,100497.63
2024-03-13T13:58:38.385Z,100491.28
2024-03-13T14:01:06.539Z,100495.28
2024-03-13T14:03:34.282Z,100495.28
2024-03-13T14:06:02.537Z,100492.69
2024-03-13T14:08:30.702Z,100490.47
2024-03-13T14:11:01.580Z,100487.97
2024-03-13T14:13:30.569Z,100489.16
2024-03-13T14:15:58.260Z,100495.06
2024-03-13T14:18:26.061Z,100502.59
2024-03-13T14:20:53.851Z,100500.13
2024-03-13T14:23:21.606Z,100503.22
2024-03-13T14:25:49.270Z,100499.25
2024-03-13T14:28:17.265Z,100500.81
2024-03-13T14:30:45.675Z,100506.69
2024-03-13T14:33:13.586Z,100508.78
2024-03-13T14:35:43.608Z,100505.66
2024-03-13T14:38:13.692Z,100501.13
2024-03-13T14:40:41.366Z,100506.47
2024-03-13T14:43:10.663Z,100499.63
2024-03-13T14:45:38.638Z,100494.41
2024-03-13T14:48:08.061Z,100503.03
2024-03-13T14:50:36.075Z,100497.19
2024-03-13T14:53:06.648Z,100494.44
2024-03-13T14:55:35.328Z,100489.00
2024-03-13T14:58:04.373Z,100493.16
2024-03-13T15:00:32.589Z,100490.34
2024-03-13T15:03:00.796Z,100484.06
2024-03-13T15:05:32.181Z,100483.97
2024-03-13T15:08:02.644Z,100480.88
2024-03-13T15:10:31.134Z,100479.63
2024-03-13T15:12:59.471Z,100479.56
2024-03-13T15:15:27.592Z,100484.38
2024-03-13T15:17:55.872Z,100489.63
2024-03-13T15:20:23.878Z,100477.09
2024-03-13T15:22:51.555Z,100486.44
2024-03-13T15:25:19.293Z,100488.56
2024-03-13T15:27:47.170Z,100490.66
2024-03-13T15:30:16.756Z,100495.31
2024-03-13T15:32:45.483Z,100493.72
2024-03-13T15:35:14.591Z,100488.00
2024-03-13T15:37:42.301Z,100495.88
2024-03-13T15:40:12.390Z,100494.06
2024-03-13T15:42:41.185Z,100496.69
2024-03-13T15:45:09.483Z,100495.88
2024-03-13T15:47:38.814Z,100496.53
2024-03-13T15:50:13.388Z,100494.19
2024-03-13T15:52:47.837Z,100500.72
2024-03-13T15:55:16.889Z,100500.00
2024-03-13T15:57:44.599Z,100496.44
2024-03-13T16:00:17.282Z,100504.63
2024-03-13T16:02:46.469Z,100503.19
2024-03-13T16:05:14.345Z,100504.59
2024-03-13T16:07:42.492Z,100493.88
2024-03-13T16:10:10.550Z,100503.31
2024-03-13T16:12:38.428Z,100495.75
2024-03-13T16:15:07.224Z,100497.22
2024-03-13T16:17:35.718Z,100502.38
2024-03-13T16:20:03.452Z,100499.41
2024-03-13T16:22:31.143Z,100491.41
2024-03-13T16:24:58.981Z,100506.72
2024-03-13T16:27:26.949Z,100498.34
2024-03-13T16:29:54.668Z,100496.81
2024-03-13T16:32:22.533Z,100501.16
2024-03-13T16:34:50.288Z,100505.56
2024-03-13T16:37:18.031Z,100507.06
2024-03-13T16:39:46.162Z,100497.75
2024-03-13T16:42:13.891Z,100501.19
2024-03-13T16:44:41.685Z,100505.66
2024-03-13T16:47:09.748Z,100502.34
2024-03-13T16:49:37.516Z,100511.81
2024-03-13T16:52:05.389Z,100506.84
2024-03-13T16:54:33.062Z,100506.38
2024-03-13T16:57:00.875Z,100511.34
2024-03-13T16:59:28.584Z,100513.50
2024-03-13T17:01:56.251Z,100515.31
2024-03-13T17:04:23.932Z,100517.03
2024-03-13T17:06:51.713Z,100514.38
2024-03-13T17:09:19.472Z,100516.41
2024-03-13T17:11:48.258Z,100515.78
2024-03-13T17:14:15.953Z,100511.06
2024-03-13T17:16:43.639Z,100518.63
2024-03-13T17:19:11.606Z,100514.88
2024-03-13T17:21:40.201Z,100510.91
2024-03-13T17:24:09.803Z,100517.78
2024-03-13T17:26:37.513Z,100522.69
2024-03-13T17:29:05.334Z,100524.06
2024-03-13T17:31:33.230Z,100525.44
2024-03-13T17:34:01.362Z,100522.66
2024-03-13T17:36:29.536Z,100527.81
2024-03-13T17:38:57.682Z,100531.59
2024-03-13T17:41:25.664Z,100532.78
2024-03-13T17:43:53.362Z,100533.03
2024-03-13T17:46:21.065Z,100537.63
2024-03-13T17:48:48.942Z,100536.56
2024-03-13T17:51:16.849Z,100542.13
2024-03-13T17:53:44.602Z,100542.69
2024-03-13T17:56:12.358Z,100545.88
2024-03-13T17:58:41.521Z,100542.69
2024-03-13T18:01:09.857Z,100552.16
2024-03-13T18:03:37.571Z,100556.72
2024-03-13T18:06:06.177Z,100556.91
2024-03-13T18:08:36.741Z,100553.69
2024-03-13T18:11:04.525Z,100556.50
2024-03-13T18:13:37.869Z,100562.59
2024-03-13T18:16:08.657Z,100556.84
2024-03-13T18:18:36.510Z,100559.44
2024-03-13T18:21:05.377Z,100551.53
2024-03-13T18:23:33.805Z,100547.06
2024-03-13T18:26:01.484Z,100554.69
2024-03-13T18:28:29.725Z,100547.44
2024-03-13T18:30:57.737Z,100552.84
2024-03-13T18:33:25.267Z,100546.00
2024-03-13T18:35:53.029Z,100540.44
2024-03-13T18:38:20.909Z,100549.53
2024-03-13T18:40:48.753Z,100552.09
2024-03-13T18:43:16.484Z,100547.16
2024-03-13T18:45:44.197Z,100554.41
2024-03-13T18:48:12.244Z,100545.25
2024-03-13T18:50:40.104Z,100543.25
2024-03-13T18:53:08.520Z,100546.31
2024-03-13T18:55:36.784Z,100535.38
2024-03-13T18:58:04.533Z,100544.06
2024-03-13T19:00:32.657Z,100546.41
2024-03-13T19:03:02.342Z,100549.53
2024-03-13T19:05:30.012Z,100553.94
2024-03-13T19:07:58.232Z,100543.50
2024-03-13T19:10:28.188Z,100544.22
2024-03-13T19:12:59.248Z,100549.47
2024-03-13T19:15:31.296Z,100554.69
2024-03-13T19:18:01.940Z,100554.69
2024-03-13T19:20:31.198Z,100554.41
2024-03-13T19:23:04.023Z,100558.56
2024-03-13T19:25:33.158Z,100555.56
2024-03-13T19:28:00.779Z,100547.53
2024-03-13T19:30:29.716Z,100552.44
2024-03-13T19:32:57.720Z,100554.69
2024-03-13T19:35:26.297Z,100564.06
2024-03-13T19:37:53.959Z,100557.19
2024-03-13T19:40:21.947Z,100553.25
2024-03-13T19:42:49.806Z,100556.47
2024-03-13T19:45:17.662Z,100556.63
2024-03-13T19:47:46.693Z,100561.38
2024-03-13T19:50:14.730Z,100552.75
2024-03-13T19:52:44.528Z,100556.19
2024-03-13T19:55:14.062Z,100558.28
2024-03-13T19:57:42.377Z,100551.72
2024-03-13T20:00:14.928Z,100557.50
2024-03-13T20:02:44.489Z,100554.00
2024-03-13T20:05:13.807Z,100557.78
2024-03-13T20:07:43.386Z,100561.22
2024-03-13T20:10:12.508Z,100557.25
2024-03-13T20:12:40.999Z,100555.28
2024-03-13T20:15:09.453Z,100560.84
2024-03-13T20:17:37.965Z,100560.19
2024-03-13T20:20:06.976Z,100555.25
2024-03-13T20:22:36.593Z,100558.13
2024-03-13T20:25:04.727Z,100555.53
2024-03-13T20:27:32.443Z,100560.19
2024-03-13T20:30:00.265Z,100558.56
2024-03-13T20:32:28.327Z,100559.16
2024-03-13T20:34:56.077Z,100558.09
2024-03-13T20:37:26.486Z,100555.22
2024-03-13T20:39:54.224Z,100555.41
2024-03-13T20:42:21.992Z,100552.84
2024-03-13T20:44:49.756Z,100555.94
2024-03-13T20:47:17.468Z,100558.41
2024-03-13T20:49:45.497Z,100555.59
2024-03-13T20:52:13.899Z,100562.44
2024-03-13T20:54:42.019Z,100559.91
2024-03-13T20:57:11.102Z,100567.59
2024-03-13T20:59:38.760Z,100561.41
2024-03-13T21:02:08.583Z,100556.22
2024-03-13T21:04:36.491Z,100569.16
2024-03-13T21:07:04.189Z,100562.88
2024-03-13T21:09:31.962Z,100556.72
2024-03-13T21:11:59.800Z,100557.84
2024-03-13T21:14:27.806Z,100559.19
2024-03-13T21:16:55.471Z,100553.16
2024-03-13T21:19:23.223Z,100557.09
2024-03-13T21:21:50.993Z,100559.50
2024-03-13T21:24:19.342Z,100551.38
2024-03-13T21:26:48.338Z,100554.75
2024-03-13T21:29:16.371Z,100556.16
2024-03-13T21:31:43.810Z,100560.00
2024-03-13T21:34:17.282Z,100555.16
2024-03-13T21:36:51.895Z,100555.34
2024-03-13T21:39:22.389Z,100552.66
2024-03-13T21:41:50.526Z,100548.75
2024-03-13T21:44:18.282Z,100546.59
2024-03-13T21:46:45.923Z,100540.09
2024-03-13T21:49:14.326Z,100542.03
2024-03-13T21:51:43.074Z,100548.75
2024-03-13T21:54:11.769Z,100542.81
2024-03-13T21:56:41.399Z,100535.59
2024-03-13T21:59:09.206Z,100534.97
2024-03-13T22:01:36.907Z,100529.22
2024-03-13T22:04:04.744Z,100541.06
2024-03-13T22:06:32.485Z,100539.78
2024-03-13T22:09:00.260Z,100535.94
2024-03-13T22:11:28.078Z,100533.06
2024-03-13T22:13:55.771Z,100530.31
2024-03-13T22:16:24.097Z,100533.31
2024-03-13T22:18:52.334Z,100539.63
2024-03-13T22:21:20.070Z,100531.78
2024-03-13T22:23:47.743Z,100537.16
2024-03-13T22:26:18.959Z,100534.59
2024-03-13T22:28:46.627Z,100541.94
2024-03-13T22:31:14.326Z,100538.00
2024-03-13T22:33:42.105Z,100536.22
2024-03-13T22:36:13.590Z,100534.72
2024-03-13T22:38:41.285Z,100538.34
2024-03-13T22:41:09.000Z,100541.13
2024-03-13T22:43:36.727Z,100541.25
2024-03-13T22:46:05.103Z,100532.97
2024-03-13T22:48:33.283Z,100532.97
2024-03-13T22:51:01.221Z,100537.69
2024-03-13T22:53:29.865Z,100539.94
2024-03-13T22:55:58.381Z,100534.53
2024-03-13T22:58:26.053Z,100533.91
2024-03-13T23:00:59.038Z,100538.47
2024-03-13T23:03:27.776Z,100536.50
2024-03-13T23:05:55.693Z,100527.53
2024-03-13T23:08:23.456Z,100530.31
2024-03-13T23:10:51.371Z,100534.19
2024-03-13T23:13:21.289Z,100530.06
2024-03-13T23:15:50.865Z,100526.78
2024-03-13T23:18:18.938Z,100528.44
2024-03-13T23:20:46.625Z,100522.50
2024-03-13T23:23:14.339Z,100532.91
2024-03-13T23:25:42.368Z,100528.47
2024-03-13T23:28:10.205Z,100532.16
2024-03-13T23:30:37.907Z,100531.47
2024-03-13T23:33:05.968Z,100524.09
2024-03-13T23:35:34.330Z,100525.53
2024-03-13T23:38:02.701Z,100521.47
2024-03-13T23:40:31.203Z,100528.00
2024-03-13T23:42:58.883Z,100528.66
2024-03-13T23:45:27.829Z,100519.91
2024-03-13T23:47:56.009Z,100519.19
2024-03-13T23:50:25.810Z,100527.78
2024-03-13T23:52:53.502Z,100519.56
2024-03-13T23:55:21.222Z,100519.56
2024-03-13T23:57:48.881Z,100514.25
